createdAt,value
2019-05-30T00:02:05.409Z,12.65
2019-05-30T00:04:35.013Z,12.78
2019-05-30T00:07:05.093Z,12.73
2019-05-30T00:09:34.627Z,12.68
2019-05-30T00:12:05.060Z,12.72
2019-05-30T00:14:34.789Z,12.72
2019-05-30T00:17:05.150Z,12.63
2019-05-30T00:19:35.211Z,12.65
2019-05-30T00:22:05.570Z,12.53
2019-05-30T00:24:35.250Z,12.48
2019-05-30T00:27:04.762Z,12.38
2019-05-30T00:29:34.303Z,12.35
2019-05-30T00:32:04.407Z,12.22
2019-05-30T00:34:34.525Z,12.24
2019-05-30T00:37:04.187Z,12.16
2019-05-30T00:39:34.202Z,12.11
2019-05-30T00:42:04.282Z,12.11
2019-05-30T00:44:33.948Z,12.24
2019-05-30T00:47:04.486Z,12.24
2019-05-30T00:49:34.228Z,12.25
2019-05-30T00:52:05.104Z,12.28
2019-05-30T00:54:34.847Z,12.30
2019-05-30T00:57:04.927Z,12.35
2019-05-30T00:59:34.515Z,12.34
2019-05-30T01:02:04.954Z,12.38
2019-05-30T01:04:34.598Z,12.35
2019-05-30T01:07:05.241Z,12.22
2019-05-30T01:09:34.809Z,12.27
2019-05-30T01:12:05.271Z,12.36
2019-05-30T01:14:34.923Z,12.35
2019-05-30T01:17:05.299Z,12.39
2019-05-30T01:19:35.594Z,12.44
2019-05-30T01:22:05.565Z,12.35
2019-05-30T01:24:35.275Z,12.32
2019-05-30T01:27:05.580Z,12.26
2019-05-30T01:29:35.277Z,12.28
2019-05-30T01:32:07.566Z,12.20
2019-05-30T01:34:37.140Z,12.32
2019-05-30T01:37:07.816Z,12.28
2019-05-30T01:39:37.422Z,12.17
2019-05-30T01:42:07.919Z,11.79
2019-05-30T01:44:37.914Z,12.00
2019-05-30T01:47:08.364Z,12.14
2019-05-30T01:49:38.246Z,12.01
2019-05-30T01:52:08.651Z,12.01
2019-05-30T01:54:38.479Z,12.05
2019-05-30T01:57:08.801Z,12.14
2019-05-30T01:59:38.461Z,12.19
2019-05-30T02:02:09.204Z,12.17
2019-05-30T02:04:38.802Z,12.25
2019-05-30T02:07:09.380Z,12.23
2019-05-30T02:09:39.019Z,11.80
2019-05-30T02:12:09.625Z,11.54
2019-05-30T02:14:39.282Z,11.83
2019-05-30T02:17:10.040Z,11.94
2019-05-30T02:19:39.647Z,11.85
2019-05-30T02:22:10.079Z,11.79
2019-05-30T02:24:39.664Z,11.91
2019-05-30T02:27:10.287Z,11.27
2019-05-30T02:29:39.931Z,11.39
2019-05-30T02:32:11.122Z,11.58
2019-05-30T02:34:40.731Z,11.79
2019-05-30T02:37:12.662Z,11.65
2019-05-30T02:39:41.563Z,11.23
2019-05-30T02:42:11.673Z,11.34
2019-05-30T02:44:41.470Z,11.56
2019-05-30T02:47:11.697Z,11.65
2019-05-30T02:49:41.272Z,11.61
2019-05-30T02:52:12.549Z,11.78
2019-05-30T02:54:42.116Z,11.89
2019-05-30T02:57:12.595Z,11.98
2019-05-30T02:59:42.410Z,12.00
2019-05-30T03:02:16.775Z,12.02
2019-05-30T03:04:43.308Z,11.89
2019-05-30T03:07:13.103Z,11.90
2019-05-30T03:09:42.873Z,11.65
2019-05-30T03:12:13.363Z,11.63
2019-05-30T03:14:43.153Z,11.74
2019-05-30T03:17:14.630Z,11.87
2019-05-30T03:19:44.222Z,11.95
2019-05-30T03:22:14.199Z,11.88
2019-05-30T03:24:43.780Z,11.83
2019-05-30T03:27:14.176Z,11.95
2019-05-30T03:29:43.881Z,11.88
2019-05-30T03:32:59.520Z,11.80
2019-05-30T03:34:45.085Z,11.51
2019-05-30T03:37:26.478Z,11.15
2019-05-30T03:39:46.508Z,10.87
2019-05-30T03:42:16.317Z,11.01
2019-05-30T03:44:45.972Z,11.25
2019-05-30T03:47:18.822Z,11.37
2019-05-30T03:49:51.247Z,11.38
2019-05-30T03:52:22.723Z,11.53
2019-05-30T03:54:52.805Z,11.56
2019-05-30T03:57:33.045Z,11.52
2019-05-30T04:00:32.754Z,11.52
2019-05-30T04:03:23.346Z,11.54
2019-05-30T04:06:00.501Z,10.98
2019-05-30T04:08:33.005Z,10.78
2019-05-30T04:11:07.679Z,10.91
2019-05-30T04:13:48.591Z,10.97
2019-05-30T04:16:19.705Z,11.01
2019-05-30T04:18:49.485Z,11.18
2019-05-30T04:21:21.681Z,11.15
2019-05-30T04:23:50.782Z,10.63
2019-05-30T04:26:20.294Z,10.74
2019-05-30T04:28:49.832Z,10.51
2019-05-30T04:31:19.794Z,10.09
2019-05-30T04:33:49.362Z,10.35
2019-05-30T04:36:19.288Z,10.46
2019-05-30T04:38:49.043Z,10.50
2019-05-30T04:41:20.834Z,10.68
2019-05-30T04:43:49.865Z,10.86
2019-05-30T04:46:21.656Z,10.98
2019-05-30T04:48:50.660Z,10.95
2019-05-30T04:51:21.650Z,10.85
2019-05-30T04:53:51.615Z,10.95
2019-05-30T04:56:21.922Z,10.48
2019-05-30T04:58:51.882Z,10.70
2019-05-30T05:01:22.211Z,10.82
2019-05-30T05:03:51.985Z,10.73
2019-05-30T05:06:22.052Z,10.84
2019-05-30T05:08:51.743Z,10.78
2019-05-30T05:11:24.677Z,10.86
2019-05-30T05:13:52.576Z,10.85
2019-05-30T05:16:34.503Z,10.98
2019-05-30T05:18:53.629Z,10.96
2019-05-30T05:21:23.206Z,11.01
2019-05-30T05:23:52.747Z,11.10
2019-05-30T05:26:22.329Z,11.08
2019-05-30T05:28:51.865Z,11.01
2019-05-30T05:31:22.482Z,11.03
2019-05-30T05:33:56.681Z,11.01
2019-05-30T05:36:23.365Z,11.14
2019-05-30T05:38:52.912Z,11.14
2019-05-30T05:41:22.417Z,10.93
2019-05-30T05:43:51.938Z,11.04
2019-05-30T05:46:22.563Z,11.01
2019-05-30T05:48:52.498Z,11.10
2019-05-30T05:51:22.756Z,11.07
2019-05-30T05:53:52.391Z,11.08
2019-05-30T05:56:22.897Z,11.21
2019-05-30T05:58:52.478Z,11.07
2019-05-30T06:01:23.275Z,11.24
2019-05-30T06:03:52.894Z,11.20
2019-05-30T06:06:23.413Z,11.29
2019-05-30T06:08:53.050Z,11.28
2019-05-30T06:11:22.768Z,11.36
2019-05-30T06:13:52.372Z,11.51
2019-05-30T06:16:22.048Z,11.51
2019-05-30T06:18:51.643Z,11.42
2019-05-30T06:21:21.310Z,11.63
2019-05-30T06:23:50.865Z,11.60
2019-05-30T06:26:20.378Z,11.66
2019-05-30T06:28:50.169Z,11.71
2019-05-30T06:31:20.305Z,11.72
2019-05-30T06:33:49.980Z,11.84
2019-05-30T06:36:20.868Z,11.84
2019-05-30T06:38:50.526Z,11.99
2019-05-30T06:41:21.408Z,12.08
2019-05-30T06:43:51.111Z,12.13
2019-05-30T06:46:20.622Z,12.12
2019-05-30T06:48:50.152Z,12.21
2019-05-30T06:51:20.848Z,12.27
2019-05-30T06:53:50.724Z,12.27
2019-05-30T06:56:21.192Z,12.28
2019-05-30T06:58:50.939Z,12.31
2019-05-30T07:01:21.840Z,12.44
2019-05-30T07:03:51.939Z,12.44
2019-05-30T07:06:23.082Z,12.46
2019-05-30T07:08:52.900Z,12.57
2019-05-30T07:11:22.718Z,12.71
2019-05-30T07:13:52.322Z,12.73
2019-05-30T07:16:23.280Z,12.74
2019-05-30T07:18:52.940Z,12.76
2019-05-30T07:21:23.547Z,12.79
2019-05-30T07:23:53.266Z,12.70
2019-05-30T07:26:23.835Z,12.73
2019-05-30T07:28:53.414Z,12.78
2019-05-30T07:31:24.000Z,12.82
2019-05-30T07:33:53.741Z,12.85
2019-05-30T07:36:24.109Z,12.84
2019-05-30T07:38:53.816Z,12.84
2019-05-30T07:41:24.542Z,12.89
2019-05-30T07:43:54.653Z,12.85
2019-05-30T07:46:24.774Z,12.90
2019-05-30T07:48:54.369Z,12.90
2019-05-30T07:51:24.606Z,12.89
2019-05-30T07:53:54.181Z,12.89
2019-05-30T07:56:23.708Z,12.95
2019-05-30T07:58:53.217Z,13.02
2019-05-30T08:01:22.753Z,12.99
2019-05-30T08:03:52.263Z,13.00
2019-05-30T08:06:22.269Z,13.05
2019-05-30T08:08:51.773Z,13.05
2019-05-30T08:11:21.313Z,13.04
2019-05-30T08:13:50.826Z,13.05
2019-05-30T08:16:20.699Z,13.10
2019-05-30T08:18:50.202Z,13.14
2019-05-30T08:21:19.740Z,13.18
2019-05-30T08:23:49.614Z,13.25
2019-05-30T08:26:19.189Z,13.27
2019-05-30T08:28:48.700Z,13.34
2019-05-30T08:31:18.238Z,13.40
2019-05-30T08:33:47.744Z,13.65
2019-05-30T08:36:17.278Z,13.83
2019-05-30T08:38:48.219Z,13.81
2019-05-30T08:41:17.977Z,13.68
2019-05-30T08:43:47.552Z,13.67
2019-05-30T08:46:17.153Z,13.68
2019-05-30T08:48:46.659Z,14.00
2019-05-30T08:51:16.200Z,13.97
2019-05-30T08:53:45.782Z,13.88
2019-05-30T08:56:15.315Z,13.87
2019-05-30T08:58:44.835Z,13.89
2019-05-30T09:01:14.435Z,13.91
2019-05-30T09:03:44.206Z,13.94
2019-05-30T09:06:13.784Z,13.99
2019-05-30T09:08:44.250Z,14.01
2019-05-30T09:11:14.052Z,14.05
2019-05-30T09:13:44.586Z,14.12
2019-05-30T09:16:14.277Z,14.14
2019-05-30T09:18:45.286Z,14.21
2019-05-30T09:21:15.024Z,14.26
2019-05-30T09:23:46.235Z,14.71
2019-05-30T09:26:15.894Z,14.93
2019-05-30T09:28:46.276Z,14.89
2019-05-30T09:31:16.271Z,14.80
2019-05-30T09:33:46.666Z,14.76
2019-05-30T09:36:16.283Z,14.78
2019-05-30T09:38:45.850Z,14.81
2019-05-30T09:41:15.478Z,14.86
2019-05-30T09:43:46.341Z,14.87
2019-05-30T09:46:16.175Z,15.22
2019-05-30T09:48:46.725Z,15.56
2019-05-30T09:51:16.409Z,15.49
2019-05-30T09:53:46.075Z,15.45
2019-05-30T09:56:15.593Z,15.46
2019-05-30T09:58:46.088Z,15.62
2019-05-30T10:01:15.865Z,15.55
2019-05-30T10:03:46.525Z,15.54
2019-05-30T10:06:28.543Z,15.66
2019-05-30T10:08:49.615Z,15.94
2019-05-30T10:11:19.509Z,15.96
2019-05-30T10:13:51.019Z,15.83
2019-05-30T10:16:20.280Z,15.90
2019-05-30T10:18:50.806Z,15.89
2019-05-30T10:21:20.508Z,15.84
2019-05-30T10:23:52.412Z,15.83
2019-05-30T10:26:21.238Z,15.88
2019-05-30T10:28:51.424Z,16.13
2019-05-30T10:31:21.341Z,16.10
2019-05-30T10:33:51.077Z,16.21
2019-05-30T10:36:20.731Z,16.20
2019-05-30T10:38:50.561Z,16.20
2019-05-30T10:41:21.348Z,16.41
2019-05-30T10:43:51.144Z,16.50
2019-05-30T10:46:20.975Z,16.47
2019-05-30T10:48:50.876Z,16.47
2019-05-30T10:51:20.619Z,16.45
2019-05-30T10:53:50.842Z,16.47
2019-05-30T10:56:21.397Z,16.79
2019-05-30T10:58:50.955Z,16.74
2019-05-30T11:01:20.513Z,16.73
2019-05-30T11:03:50.448Z,16.84
2019-05-30T11:06:27.805Z,16.84
2019-05-30T11:08:59.087Z,16.84
2019-05-30T11:11:28.903Z,17.00
2019-05-30T11:13:58.427Z,17.02
2019-05-30T11:16:27.946Z,17.17
2019-05-30T11:18:57.933Z,17.30
2019-05-30T11:21:27.669Z,17.46
2019-05-30T11:23:58.313Z,17.36
2019-05-30T11:26:28.285Z,17.34
2019-05-30T11:28:58.873Z,17.42
2019-05-30T11:31:28.396Z,17.49
2019-05-30T11:33:59.096Z,17.63
2019-05-30T11:36:28.727Z,17.85
2019-05-30T11:38:59.454Z,17.84
2019-05-30T11:41:29.020Z,17.80
2019-05-30T11:43:59.658Z,17.78
2019-05-30T11:46:29.667Z,17.87
2019-05-30T11:49:00.042Z,18.14
2019-05-30T11:51:29.818Z,18.87
2019-05-30T11:54:00.841Z,19.97
2019-05-30T11:56:30.750Z,21.13
2019-05-30T11:59:00.355Z,22.52
2019-05-30T12:01:29.848Z,23.75
2019-05-30T12:04:00.690Z,25.10
2019-05-30T12:06:30.383Z,25.56
2019-05-30T12:09:01.129Z,26.06
2019-05-30T12:11:30.786Z,26.16
2019-05-30T12:14:01.514Z,26.75
2019-05-30T12:16:31.275Z,28.63
2019-05-30T12:19:01.901Z,29.28
2019-05-30T12:21:31.561Z,30.74
2019-05-30T12:24:02.383Z,30.28
2019-05-30T12:26:33.960Z,31.32
2019-05-30T12:29:03.453Z,31.48
2019-05-30T12:31:33.098Z,31.02
2019-05-30T12:34:02.856Z,33.73
2019-05-30T12:36:32.494Z,33.64
2019-05-30T12:39:02.703Z,31.37
2019-05-30T12:41:32.457Z,32.77
2019-05-30T12:44:03.249Z,34.14
2019-05-30T12:46:33.108Z,34.98
2019-05-30T12:49:03.695Z,35.80
2019-05-30T12:51:33.447Z,33.92
2019-05-30T12:54:03.002Z,34.96
2019-05-30T12:56:32.766Z,32.73
2019-05-30T12:59:03.062Z,30.21
2019-05-30T13:01:32.822Z,30.00
2019-05-30T13:04:03.350Z,30.45
2019-05-30T13:06:33.112Z,28.66
2019-05-30T13:09:03.374Z,28.85
2019-05-30T13:11:33.018Z,27.55
2019-05-30T13:14:02.797Z,26.51
2019-05-30T13:16:32.436Z,26.07
2019-05-30T13:19:02.346Z,25.19
2019-05-30T13:21:31.982Z,24.38
2019-05-30T13:24:01.795Z,24.76
2019-05-30T13:26:32.036Z,24.95
2019-05-30T13:29:02.346Z,24.79
2019-05-30T13:31:31.964Z,24.63
2019-05-30T13:34:02.785Z,24.33
2019-05-30T13:36:32.917Z,24.44
2019-05-30T13:39:03.228Z,24.14
2019-05-30T13:41:32.851Z,23.13
2019-05-30T13:44:04.518Z,22.48
2019-05-30T13:46:33.694Z,22.50
2019-05-30T13:49:04.646Z,22.56
2019-05-30T13:51:34.391Z,22.45
2019-05-30T13:54:05.186Z,22.32
2019-05-30T13:56:34.811Z,22.13
2019-05-30T13:59:04.385Z,22.04
2019-05-30T14:01:33.922Z,22.21
2019-05-30T14:04:04.655Z,22.28
2019-05-30T14:06:34.246Z,22.16
2019-05-30T14:09:04.238Z,22.04
2019-05-30T14:11:33.815Z,22.04
2019-05-30T14:14:03.320Z,21.92
2019-05-30T14:16:32.855Z,21.69
2019-05-30T14:19:02.891Z,21.58
2019-05-30T14:21:32.475Z,21.58
2019-05-30T14:24:03.154Z,21.65
2019-05-30T14:26:33.179Z,21.82
2019-05-30T14:29:03.897Z,21.70
2019-05-30T14:31:33.508Z,21.63
2019-05-30T14:34:04.183Z,21.56
2019-05-30T14:36:33.930Z,21.47
2019-05-30T14:39:04.817Z,21.58
2019-05-30T14:41:34.416Z,21.59
2019-05-30T14:44:05.086Z,21.50
2019-05-30T14:46:34.744Z,21.50
2019-05-30T14:49:04.472Z,21.39
2019-05-30T14:51:35.401Z,21.22
2019-05-30T14:54:05.326Z,21.33
2019-05-30T14:56:34.848Z,21.33
2019-05-30T14:59:04.957Z,21.17
2019-05-30T15:01:34.910Z,21.21
2019-05-30T15:04:05.155Z,21.18
2019-05-30T15:06:34.726Z,21.06
2019-05-30T15:09:15.425Z,21.00
2019-05-30T15:11:36.669Z,20.90
2019-05-30T15:14:06.785Z,20.88
2019-05-30T15:16:36.472Z,20.83
2019-05-30T15:19:06.337Z,20.79
2019-05-30T15:21:36.296Z,20.85
2019-05-30T15:24:05.880Z,20.84
2019-05-30T15:26:35.411Z,20.71
2019-05-30T15:29:05.977Z,20.82
2019-05-30T15:31:35.599Z,20.83
2019-05-30T15:34:06.322Z,20.76
2019-05-30T15:36:36.000Z,20.74
2019-05-30T15:39:08.953Z,20.67
2019-05-30T15:41:38.796Z,20.58
2019-05-30T15:44:09.448Z,20.52
2019-05-30T15:46:39.568Z,20.40
2019-05-30T15:49:10.195Z,20.38
2019-05-30T15:51:39.767Z,20.32
2019-05-30T15:54:09.281Z,20.32
2019-05-30T15:56:38.820Z,20.28
2019-05-30T15:59:09.490Z,20.24
2019-05-30T16:01:39.143Z,20.28
2019-05-30T16:04:08.657Z,20.32
2019-05-30T16:06:38.194Z,20.26
2019-05-30T16:09:07.940Z,20.17
2019-05-30T16:11:37.813Z,20.18
2019-05-30T16:14:07.324Z,20.16
2019-05-30T16:16:39.991Z,20.16
2019-05-30T16:19:19.329Z,20.13
2019-05-30T16:21:39.330Z,20.06
2019-05-30T16:24:09.018Z,20.03
2019-05-30T16:26:38.539Z,20.03
2019-05-30T16:29:08.053Z,19.97
2019-05-30T16:31:37.558Z,20.00
2019-05-30T16:34:07.088Z,19.95
2019-05-30T16:36:36.603Z,19.96
2019-05-30T16:39:08.155Z,19.97
2019-05-30T16:41:42.570Z,19.92
2019-05-30T16:44:08.993Z,19.95
2019-05-30T16:46:38.511Z,19.99
2019-05-30T16:49:08.047Z,19.97
2019-05-30T16:51:37.558Z,19.91
2019-05-30T16:54:07.160Z,19.87
2019-05-30T16:56:36.672Z,19.85
2019-05-30T16:59:06.205Z,19.85
2019-05-30T17:01:35.758Z,19.86
2019-05-30T17:04:05.467Z,19.90
2019-05-30T17:06:35.114Z,19.94
2019-05-30T17:09:06.614Z,19.86
2019-05-30T17:11:36.618Z,19.80
2019-05-30T17:14:07.398Z,19.79
2019-05-30T17:16:37.176Z,19.75
2019-05-30T17:19:06.720Z,19.71
2019-05-30T17:21:36.303Z,19.83
2019-05-30T17:24:05.924Z,19.73
2019-05-30T17:26:35.742Z,19.74
2019-05-30T17:29:05.425Z,19.74
2019-05-30T17:31:34.937Z,19.69
2019-05-30T17:34:04.733Z,19.75
2019-05-30T17:36:34.249Z,19.73
2019-05-30T17:39:04.524Z,19.75
2019-05-30T17:41:34.512Z,19.72
2019-05-30T17:44:04.452Z,19.82
2019-05-30T17:46:34.104Z,19.78
2019-05-30T17:49:04.051Z,19.73
2019-05-30T17:51:33.571Z,19.75
2019-05-30T17:54:03.120Z,19.80
2019-05-30T17:56:32.671Z,19.77
2019-05-30T17:59:02.197Z,19.73
2019-05-30T18:01:31.708Z,19.66
2019-05-30T18:04:01.233Z,19.58
2019-05-30T18:06:30.838Z,19.54
2019-05-30T18:09:00.427Z,19.53
2019-05-30T18:11:31.049Z,19.51
2019-05-30T18:14:00.624Z,19.44
2019-05-30T18:16:31.436Z,19.44
2019-05-30T18:19:01.055Z,19.42
2019-05-30T18:21:31.822Z,19.38
2019-05-30T18:24:01.926Z,19.39
2019-05-30T18:26:31.987Z,19.36
2019-05-30T18:29:01.874Z,19.32
2019-05-30T18:31:32.281Z,19.31
2019-05-30T18:34:01.987Z,19.28
2019-05-30T18:36:32.665Z,19.26
2019-05-30T18:39:02.372Z,19.25
2019-05-30T18:41:32.869Z,19.27
2019-05-30T18:44:02.669Z,19.31
2019-05-30T18:46:33.331Z,19.29
2019-05-30T18:49:02.966Z,19.29
2019-05-30T18:51:32.568Z,19.24
2019-05-30T18:54:02.082Z,19.18
2019-05-30T18:56:32.816Z,19.16
2019-05-30T18:59:02.410Z,19.13
2019-05-30T19:01:31.924Z,19.08
2019-05-30T19:04:01.557Z,19.04
2019-05-30T19:06:31.939Z,19.00
2019-05-30T19:09:01.571Z,18.99
2019-05-30T19:11:34.927Z,18.96
2019-05-30T19:14:02.718Z,18.94
2019-05-30T19:16:32.480Z,18.91
2019-05-30T19:19:02.083Z,18.92
2019-05-30T19:21:32.171Z,18.84
2019-05-30T19:24:01.911Z,18.84
2019-05-30T19:26:32.451Z,18.81
2019-05-30T19:29:02.065Z,18.79
2019-05-30T19:31:32.646Z,18.77
2019-05-30T19:34:02.297Z,18.74
2019-05-30T19:36:33.030Z,18.73
2019-05-30T19:39:02.673Z,18.74
2019-05-30T19:41:45.601Z,18.72
2019-05-30T19:44:03.842Z,18.70
2019-05-30T19:46:34.257Z,18.66
2019-05-30T19:49:03.847Z,18.63
2019-05-30T19:51:33.380Z,18.59
2019-05-30T19:54:02.900Z,18.58
2019-05-30T19:56:33.338Z,18.58
2019-05-30T19:59:03.750Z,18.57
2019-05-30T20:01:33.785Z,18.55
2019-05-30T20:04:03.387Z,18.52
2019-05-30T20:06:34.501Z,18.50
2019-05-30T20:09:05.868Z,18.49
2019-05-30T20:11:35.413Z,18.49
2019-05-30T20:14:04.994Z,18.47
2019-05-30T20:16:35.712Z,18.46
2019-05-30T20:19:05.402Z,18.45
2019-05-30T20:21:35.738Z,18.44
2019-05-30T20:24:05.478Z,18.43
2019-05-30T20:26:36.567Z,18.41
2019-05-30T20:29:06.251Z,18.41
2019-05-30T20:31:35.777Z,18.40
2019-05-30T20:34:05.358Z,18.39
2019-05-30T20:36:34.896Z,18.34
2019-05-30T20:39:06.486Z,18.31
2019-05-30T20:41:36.887Z,18.32
2019-05-30T20:44:06.625Z,18.31
2019-05-30T20:46:37.044Z,18.29
2019-05-30T20:49:06.998Z,18.32
2019-05-30T20:51:37.258Z,18.31
2019-05-30T20:54:07.723Z,18.28
2019-05-30T20:56:37.405Z,18.26
2019-05-30T20:59:10.007Z,18.22
2019-05-30T21:01:38.214Z,18.18
2019-05-30T21:04:07.715Z,18.17
2019-05-30T21:06:38.793Z,18.14
2019-05-30T21:09:27.324Z,18.13
2019-05-30T21:11:44.364Z,18.05
2019-05-30T21:14:16.185Z,18.03
2019-05-30T21:16:49.399Z,18.02
2019-05-30T21:19:18.981Z,18.04
2019-05-30T21:21:48.518Z,18.02
2019-05-30T21:24:18.038Z,18.02
2019-05-30T21:26:47.589Z,18.05
2019-05-30T21:29:17.462Z,18.09
2019-05-30T21:31:47.552Z,18.12
2019-05-30T21:34:17.272Z,18.10
2019-05-30T21:36:47.984Z,18.09
2019-05-30T21:39:17.604Z,18.08
2019-05-30T21:41:48.436Z,18.08
2019-05-30T21:44:18.185Z,18.04
2019-05-30T21:46:48.902Z,18.05
2019-05-30T21:49:18.612Z,18.04
2019-05-30T21:51:48.119Z,17.98
2019-05-30T21:54:17.652Z,17.90
2019-05-30T21:56:48.383Z,17.95
2019-05-30T21:59:17.976Z,17.95
2019-05-30T22:01:48.617Z,17.90
2019-05-30T22:04:18.313Z,17.89
2019-05-30T22:06:48.745Z,17.92
2019-05-30T22:09:18.962Z,17.96
2019-05-30T22:11:49.628Z,17.94
2019-05-30T22:14:19.283Z,17.83
2019-05-30T22:16:50.234Z,17.84
2019-05-30T22:19:19.916Z,17.81
2019-05-30T22:21:50.287Z,17.78
2019-05-30T22:24:19.945Z,17.72
2019-05-30T22:26:50.628Z,17.70
2019-05-30T22:29:20.288Z,17.70
2019-05-30T22:31:51.027Z,17.73
2019-05-30T22:34:20.603Z,17.64
2019-05-30T22:36:50.989Z,17.56
2019-05-30T22:39:20.641Z,17.58
2019-05-30T22:41:50.495Z,17.63
2019-05-30T22:44:20.027Z,17.68
2019-05-30T22:46:50.188Z,17.61
2019-05-30T22:49:19.940Z,17.62
2019-05-30T22:51:49.461Z,17.60
2019-05-30T22:54:18.994Z,17.62
2019-05-30T22:56:49.379Z,17.63
2019-05-30T22:59:19.008Z,17.59
2019-05-30T23:01:48.887Z,17.59
2019-05-30T23:04:18.793Z,17.53
2019-05-30T23:06:48.606Z,17.48
2019-05-30T23:09:18.216Z,17.47
2019-05-30T23:11:49.670Z,17.49
2019-05-30T23:14:19.741Z,17.44
2019-05-30T23:16:50.230Z,17.42
2019-05-30T23:21:48.828Z,17.44
2019-05-30T23:24:18.367Z,17.39
2019-05-30T23:26:49.422Z,17.35
2019-05-30T23:29:19.221Z,17.30
2019-05-30T23:31:49.844Z,17.26
2019-05-30T23:34:20.093Z,17.24
2019-05-30T23:36:50.484Z,17.21
2019-05-30T23:39:20.301Z,17.10
2019-05-30T23:41:51.094Z,17.16
2019-05-30T23:44:20.787Z,17.24
2019-05-30T23:46:51.433Z,17.23
2019-05-30T23:49:21.320Z,17.24
2019-05-30T23:51:51.933Z,17.26
2019-05-30T23:54:21.988Z,17.31
2019-05-30T23:56:52.340Z,17.33
2019-05-30T23:59:22.008Z,17.28
